x

Middle Nomad (46004) Wave Buoy

10:00am - Sat 29th Aug 2015 All times are PDT. -7 hours from GMT.

  • Sig Wave height 13.4ft
  • Peak Period 12s
  • Wind
    20mph, 25mph gusts
  • Sea Temp 62°f
  • Air Temp 59°f
  • Sea Pressure 992.3mb
  • Middle Nomad
  • Middle Nomad

More Historic Weather Station data

Upgrade to MSW Pro to gain access to the past 30 days of data for over 8000 Wavebouys and Weather Stations around the globe.

Join Pro

Comparision Forecast

View Surf forecast
   
Sat 08/29 10:00am 13.5ft 12s 20 25 mph 992.3mb 62f 59f
9:00am 14.5ft 12s 18 20 mph 992.8mb 62f 59f
8:00am 14.5ft 13s 18 25 mph 993mb 62f 59f
7:00am 14.5ft 12s 18 22 mph 992.9mb 62f 58f
6:00am 14ft 12s 20 27 mph 992.8mb 62f 59f
5:00am 13ft 12s 18 20 mph 993mb 62f 58f
4:00am 12ft 12s 20 27 mph 993.4mb 62f 58f
3:00am 11.5ft 11s 20 27 mph 994.3mb 62f 57f
2:00am 11.5ft 10s 20 25 mph 995.1mb 62f 58f
1:00am 11.5ft 11s 18 22 mph 995.9mb 62f 56f
12:00am 11ft 11s 22 27 mph 996.2mb 62f 57f
Fri 08/28 11:00pm 9.5ft 8s 16 20 mph 996.8mb 62f 58f
10:00pm 9ft 8s 13 18 mph 997.3mb 62f 58f
9:00pm 8ft 8s 13 16 mph 997.5mb 62f 58f
8:00pm 8.5ft 8s 16 18 mph 997.7mb 62f 58f
7:00pm 8.5ft 8s 16 18 mph 997.8mb 62f 59f
6:00pm 8ft 7s 16 18 mph 998mb 62f 59f
5:00pm 7ft 8s 16 20 mph 998.1mb 62f 58f
4:00pm 7ft 8s 18 20 mph 998.3mb 62f 59f
3:00pm 7ft 16s 16 20 mph 998.3mb 62f 60f
2:00pm 8ft 15s 16 20 mph 998.4mb 62f 59f
1:00pm 8ft 8s 16 20 mph 998.4mb 62f 58f
12:00pm 7.5ft 7s 20 27 mph 998.1mb 62f 59f
11:00am 8ft 7s 20 25 mph 998.3mb 62f 60f
10:00am 8ft 8s 20 25 mph 998.6mb 62f 60f
9:00am 9ft 7s 20 25 mph 999.3mb 62f 59f
8:00am 8.5ft 6s 22 27 mph 999.8mb 62f 58f
7:00am 8ft 6s 25 27 mph 1000.3mb 62f 59f
6:00am 7.5ft 6s 27 34 mph 1001.1mb 62f 59f
5:00am 7ft 15s 29 34 mph 1002mb 62f 60f
4:00am 6ft 16s 27 29 mph 1003.8mb 62f 60f
3:00am 5ft 15s 25 29 mph 1005.3mb 62f 60f
2:00am 5ft 16s 22 27 mph 1006.3mb 62f 60f
1:00am 4.5ft 15s 20 25 mph 1006.8mb 62f 60f
12:00am 4ft 16s 18 22 mph 1007.9mb 62f 60f
Thu 08/27 11:00pm 4ft 17s 9 11 mph 1009mb 62f 60f
10:00pm 4ft 16s 7 9 mph 1009.8mb 62f 60f
9:00pm 4ft 15s 4 7 mph 1010.3mb 62f 60f
8:00pm 4ft 14s 4 7 mph 1010.9mb 62f 60f
7:00pm 4.5ft 16s 11 13 mph 1011.7mb 62f 60f
6:00pm 4.5ft 14s 9 11 mph 1012.3mb 62f 61f
5:00pm 4.5ft 14s 11 13 mph 1012.8mb 62f 61f
4:00pm 5ft 16s 11 13 mph 1013.3mb 62f 61f
3:00pm 5ft 16s 4 7 mph 1014mb 62f 62f
2:00pm 4.5ft 14s 7 9 mph 1014.1mb 62f 62f
1:00pm 5ft 15s 9 11 mph 1014.5mb 62f 62f
12:00pm 5ft 14s 13 18 mph 1014.6mb 62f 61f
11:00am 5ft 15s 13 16 mph 1015.1mb 62f 61f
10:00am 5ft 15s 13 16 mph 1015.2mb 62f 61f
9:00am 6ft 15s 13 18 mph 1015.5mb 62f 61f
8:00am 6ft 14s 16 18 mph 1015.6mb 62f 60f
7:00am 6ft 14s 16 18 mph 1015.7mb 62f 60f
6:00am 6ft 14s 16 20 mph 1015.6mb 62f 60f
5:00am 6ft 15s 18 22 mph 1015.6mb 62f 61f
4:00am 6ft 6s 18 22 mph 1015.7mb 62f 61f
3:00am 6.5ft 7s 16 18 mph 1015.8mb 62f 61f
2:00am 6ft 7s 16 18 mph 1015.9mb 62f 61f
1:00am 7ft 7s 13 18 mph 1015.5mb 62f 61f
12:00am 7.5ft 7s 20 22 mph 1015.6mb 62f 61f
Wed 08/26 11:00pm 8ft 7s 20 22 mph 1015.8mb 62f 61f
10:00pm 8ft 7s 22 27 mph 1015.6mb 62f 61f
9:00pm 8ft 7s 22 27 mph 1015.2mb 62f 61f
8:00pm 8.5ft 6s 22
mph
1015.2mb 62f 61f
7:00pm 8ft 6s 25 29 mph 1015.1mb 62f 61f
6:00pm 8ft 7s 25 29 mph 1015.2mb 62f 61f
5:00pm 8ft 6s 27 31 mph 1015.3mb 62f 60f
4:00pm 7.5ft 6s 25 29 mph 1015.3mb 62f 61f
3:00pm 8ft 6s 27 31 mph 1015.4mb 62f 61f
2:00pm 8ft 7s 27 31 mph 1015.7mb 62f 61f
1:00pm  -   -  25
mph
1016mb - 61f
12:00pm 7ft 7s 25 29 mph 1015.9mb 62f 61f
11:00am 7.5ft 6s 25 29 mph 1016.1mb 62f 59f
10:00am 7.5ft 6s 27 31 mph 1016mb 62f 60f
9:00am 7.5ft 7s 25 31 mph 1016mb 62f 60f
8:00am 7ft 8s 22 29 mph 1016mb 62f 60f
7:00am 7ft 8s 22 27 mph 1015.7mb 62f 60f
6:00am 7ft 8s 22 27 mph 1015.3mb 62f 60f
5:00am 6.5ft 8s 22 27 mph 1015.2mb 62f 60f
4:00am 7ft 8s 18 22 mph 1015.1mb 62f 61f
3:00am 7ft 15s 18 22 mph 1014.9mb 62f 61f
2:00am 7ft 7s 20 22 mph 1014.7mb 62f 61f
1:00am 7ft 7s 22 27 mph 1014.5mb 62f 60f
12:00am 7ft 7s 20 25 mph 1014.5mb 62f 60f
Tue 08/25 11:00pm 7.5ft 6s 22 25 mph 1014.3mb 62f 60f
10:00pm 7ft 7s 20 25 mph 1014.3mb 62f 60f
9:00pm 6.5ft 7s 20 25 mph 1014mb 62f 60f
8:00pm 7ft 8s 20 25 mph 1013.7mb 62f 60f
7:00pm 7ft 9s 20 25 mph 1013.7mb 62f 60f